RA01887 USRR-USRO
Flight info
| Callsign | RA01887 |
|---|---|
| Flight time | N/A |
| Altitude | 3000 |
| Route | ALONG HIGWAYS 71100K10 71100K18 71140P1 |
| Aircraft | H145/L-VGDW/C |
Departure
| Time | 2026-04-28 12:11 |
|---|---|
| Airport | Surgut International Airport (USRR) |
Arrival
| Time | N/A |
|---|---|
| Airport | Noyabrsk Airport (USRO) |
| Time | Latitude | Longitude | Altitude | Speed | Heading |
|---|---|---|---|---|---|
| 2026-04-28 12:03 | 61.34126 | 73.41753 | 204 ft | 0 kts | 179° |
| 2026-04-28 12:08 | 61.34125 | 73.41754 | 205 ft | 0 kts | 182° |
| 2026-04-28 12:08 | 61.34092 | 73.41745 | 214 ft | 5 kts | 294° |
| 2026-04-28 12:08 | 61.34149 | 73.41675 | 218 ft | 11 kts | 12° |
| 2026-04-28 12:08 | 61.34189 | 73.41683 | 204 ft | 0 kts | 141° |
| 2026-04-28 12:09 | 61.34189 | 73.41681 | 204 ft | 0 kts | 102° |
| 2026-04-28 12:09 | 61.34189 | 73.41692 | 222 ft | 3 kts | 91° |
| 2026-04-28 12:09 | 61.34200 | 73.41745 | 355 ft | 5 kts | 297° |
| 2026-04-28 12:10 | 61.34326 | 73.41747 | 558 ft | 49 kts | 19° |
| 2026-04-28 12:10 | 61.34937 | 73.42039 | 640 ft | 102 kts | 17° |
| 2026-04-28 12:10 | 61.35375 | 73.42255 | 1453 ft | 15 kts | 200° |
| 2026-04-28 12:10 | 61.35409 | 73.42045 | 1594 ft | 31 kts | 204° |
| 2026-04-28 12:11 | 61.35261 | 73.41464 | 1753 ft | 58 kts | 225° |
| 2026-04-28 12:11 | 61.35095 | 73.40722 | 1993 ft | 44 kts | 236° |
| 2026-04-28 12:11 | 61.35121 | 73.40355 | 2134 ft | 16 kts | 246° |
| 2026-04-28 12:11 | 61.35188 | 73.40260 | 2122 ft | 10 kts | 244° |
| 2026-04-28 12:12 | 61.35268 | 73.40313 | 2043 ft | 14 kts | 268° |
| 2026-04-28 12:12 | 61.35334 | 73.40450 | 1854 ft | 11 kts | 354° |
| 2026-04-28 12:12 | 61.35511 | 73.40706 | 1703 ft | 70 kts | 66° |
| 2026-04-28 12:12 | 61.35902 | 73.42113 | 1430 ft | 135 kts | 76° |
| 2026-04-28 12:13 | 61.36054 | 73.44019 | 1595 ft | 127 kts | 94° |
| 2026-04-28 12:13 | 61.36050 | 73.45773 | 1846 ft | 121 kts | 103° |
| 2026-04-28 12:13 | 61.35979 | 73.47546 | 1996 ft | 122 kts | 103° |
| 2026-04-28 12:13 | 61.35903 | 73.49294 | 2202 ft | 124 kts | 105° |
| 2026-04-28 12:14 | 61.35806 | 73.51101 | 2326 ft | 130 kts | 105° |
| 2026-04-28 12:14 | 61.35665 | 73.52991 | 2377 ft | 135 kts | 108° |
| 2026-04-28 12:14 | 61.35454 | 73.54922 | 2397 ft | 136 kts | 112° |
| 2026-04-28 12:14 | 61.35171 | 73.56776 | 2472 ft | 134 kts | 118° |
| 2026-04-28 12:15 | 61.34804 | 73.58567 | 2600 ft | 134 kts | 123° |
| 2026-04-28 12:15 | 61.34703 | 73.60548 | 2710 ft | 155 kts | 83° |
| 2026-04-28 12:15 | 61.35134 | 73.62660 | 2795 ft | 160 kts | 67° |
| 2026-04-28 12:15 | 61.35742 | 73.64557 | 2976 ft | 157 kts | 51° |
| 2026-04-28 12:16 | 61.36643 | 73.65847 | 3146 ft | 154 kts | 25° |
| 2026-04-28 12:16 | 61.37601 | 73.66864 | 3074 ft | 154 kts | 23° |
| 2026-04-28 12:16 | 61.38569 | 73.67799 | 2963 ft | 155 kts | 22° |
| 2026-04-28 12:16 | 61.39560 | 73.68663 | 2894 ft | 154 kts | 18° |
| 2026-04-28 12:17 | 61.40561 | 73.69466 | 2793 ft | 154 kts | 21° |
| 2026-04-28 12:17 | 61.41525 | 73.70354 | 2794 ft | 149 kts | 22° |
| 2026-04-28 12:17 | 61.42440 | 73.71333 | 2823 ft | 145 kts | 26° |
| 2026-04-28 12:17 | 61.43320 | 73.72260 | 2921 ft | 139 kts | 24° |
| 2026-04-28 12:18 | 61.44177 | 73.73126 | 3009 ft | 135 kts | 23° |
| 2026-04-28 12:18 | 61.45020 | 73.73952 | 3090 ft | 133 kts | 22° |
| 2026-04-28 12:18 | 61.45861 | 73.74751 | 3181 ft | 132 kts | 20° |
| 2026-04-28 12:18 | 61.46706 | 73.75525 | 3258 ft | 133 kts | 18° |
| 2026-04-28 12:19 | 61.47567 | 73.76277 | 3304 ft | 135 kts | 18° |
| 2026-04-28 12:19 | 61.48442 | 73.77011 | 3358 ft | 135 kts | 18° |
| 2026-04-28 12:19 | 61.49324 | 73.77717 | 3403 ft | 136 kts | 15° |
| 2026-04-28 12:19 | 61.50235 | 73.78168 | 3447 ft | 134 kts | 1° |
| 2026-04-28 12:20 | 61.51150 | 73.78402 | 3485 ft | 134 kts | 358° |
| 2026-04-28 12:20 | 61.52074 | 73.78547 | 3504 ft | 133 kts | 354° |
| 2026-04-28 12:20 | 61.52994 | 73.78587 | 3542 ft | 132 kts | 351° |
| 2026-04-28 12:20 | 61.53909 | 73.78524 | 3577 ft | 131 kts | 347° |
| 2026-04-28 12:21 | 61.54813 | 73.78358 | 3595 ft | 130 kts | 343° |
| 2026-04-28 12:21 | 61.55652 | 73.77863 | 3630 ft | 120 kts | 322° |
| 2026-04-28 12:21 | 61.56407 | 73.77200 | 3763 ft | 116 kts | 328° |
| 2026-04-28 12:21 | 61.57171 | 73.76732 | 3915 ft | 113 kts | 333° |
| 2026-04-28 12:22 | 61.57913 | 73.76296 | 4062 ft | 109 kts | 331° |
| 2026-04-28 12:22 | 61.58693 | 73.76220 | 4161 ft | 120 kts | 4° |
| 2026-04-28 12:22 | 61.59494 | 73.76662 | 4309 ft | 118 kts | 10° |
| 2026-04-28 12:22 | 61.60266 | 73.77217 | 4467 ft | 116 kts | 13° |
| 2026-04-28 12:23 | 61.61019 | 73.77825 | 4621 ft | 115 kts | 16° |
| 2026-04-28 12:23 | 61.61753 | 73.78491 | 4770 ft | 115 kts | 19° |
| 2026-04-28 12:23 | 61.62471 | 73.79216 | 4919 ft | 114 kts | 21° |
| 2026-04-28 12:23 | 61.63173 | 73.80003 | 5063 ft | 114 kts | 24° |
| 2026-04-28 12:24 | 61.63858 | 73.80851 | 5203 ft | 114 kts | 26° |
| 2026-04-28 12:24 | 61.64541 | 73.81697 | 5347 ft | 113 kts | 23° |
| 2026-04-28 12:24 | 61.65244 | 73.82430 | 5476 ft | 113 kts | 19° |
| 2026-04-28 12:24 | 61.65945 | 73.83168 | 5613 ft | 113 kts | 20° |
| 2026-04-28 12:25 | 61.66640 | 73.83924 | 5760 ft | 112 kts | 21° |
| 2026-04-28 12:25 | 61.67331 | 73.84676 | 5764 ft | 111 kts | 14° |
| 2026-04-28 12:25 | 61.68077 | 73.85366 | 5303 ft | 123 kts | 11° |
| 2026-04-28 12:25 | 61.68893 | 73.86026 | 4874 ft | 126 kts | 9° |
| 2026-04-28 12:26 | 61.69722 | 73.86596 | 4470 ft | 125 kts | 4° |
| 2026-04-28 12:26 | 61.70561 | 73.87047 | 3958 ft | 125 kts | 2° |
| 2026-04-28 12:26 | 61.71367 | 73.87453 | 3575 ft | 112 kts | 2° |
| 2026-04-28 12:26 | 61.72092 | 73.87846 | 3217 ft | 103 kts | 3° |
| 2026-04-28 12:27 | 61.72771 | 73.88255 | 3078 ft | 102 kts | 3° |
| 2026-04-28 12:27 | 61.73483 | 73.88783 | 3023 ft | 120 kts | 17° |
| 2026-04-28 12:27 | 61.74348 | 73.89354 | 2950 ft | 139 kts | 10° |
| 2026-04-28 12:27 | 61.75328 | 73.89882 | 2923 ft | 150 kts | 8° |
| 2026-04-28 12:28 | 61.76338 | 73.90445 | 2910 ft | 153 kts | 8° |
| 2026-04-28 12:28 | 61.77397 | 73.90948 | 2905 ft | 155 kts | 6° |
| 2026-04-28 12:28 | 61.78440 | 73.91392 | 2905 ft | 155 kts | 5° |
| 2026-04-28 12:28 | 61.79504 | 73.91714 | 2894 ft | 151 kts | 354° |
| 2026-04-28 12:29 | 61.81476 | 73.90827 | 2944 ft | 147 kts | 336° |
| 2026-04-28 12:29 | 61.82466 | 73.90335 | 2970 ft | 146 kts | 337° |
| 2026-04-28 12:29 | 61.83462 | 73.89873 | 2992 ft | 147 kts | 339° |
| 2026-04-28 12:30 | 61.84469 | 73.89438 | 3008 ft | 148 kts | 339° |
| 2026-04-28 12:30 | 61.85485 | 73.89029 | 3032 ft | 149 kts | 340° |
| 2026-04-28 12:30 | 61.86476 | 73.88483 | 3058 ft | 145 kts | 330° |
| 2026-04-28 12:30 | 61.87382 | 73.87586 | 3064 ft | 143 kts | 322° |
| 2026-04-28 12:31 | 61.88272 | 73.86635 | 3060 ft | 144 kts | 323° |
| 2026-04-28 12:31 | 61.89200 | 73.85788 | 3053 ft | 146 kts | 328° |
| 2026-04-28 12:31 | 61.90166 | 73.85062 | 3052 ft | 148 kts | 332° |
| 2026-04-28 12:31 | 61.91164 | 73.84462 | 3054 ft | 150 kts | 336° |
| 2026-04-28 12:32 | 61.92190 | 73.83992 | 3061 ft | 152 kts | 340° |
| 2026-04-28 12:32 | 61.93237 | 73.83647 | 3062 ft | 153 kts | 343° |
| 2026-04-28 12:32 | 61.94288 | 73.83325 | 3039 ft | 152 kts | 342° |
| 2026-04-28 12:32 | 61.95338 | 73.82993 | 3007 ft | 152 kts | 342° |
| 2026-04-28 12:33 | 61.96367 | 73.82523 | 2987 ft | 150 kts | 335° |
| 2026-04-28 12:33 | 61.97356 | 73.81857 | 2969 ft | 149 kts | 330° |
| 2026-04-28 12:33 | 61.98318 | 73.81157 | 3043 ft | 143 kts | 332° |
| 2026-04-28 12:33 | 61.99262 | 73.80548 | 3141 ft | 141 kts | 334° |
| 2026-04-28 12:34 | 62.00235 | 73.80128 | 3184 ft | 147 kts | 344° |
| 2026-04-28 12:34 | 62.01271 | 73.80035 | 3187 ft | 151 kts | 351° |
| 2026-04-28 12:34 | 62.02313 | 73.79902 | 3181 ft | 148 kts | 341° |
| 2026-04-28 12:34 | 62.03277 | 73.79300 | 3180 ft | 146 kts | 330° |
| 2026-04-28 12:35 | 62.04221 | 73.78531 | 3184 ft | 145 kts | 326° |
| 2026-04-28 12:35 | 62.05134 | 73.77637 | 3177 ft | 144 kts | 322° |
| 2026-04-28 12:35 | 62.06018 | 73.76646 | 3177 ft | 145 kts | 321° |
| 2026-04-28 12:35 | 62.06966 | 73.75821 | 3160 ft | 149 kts | 330° |
| 2026-04-28 12:36 | 62.07975 | 73.75208 | 3147 ft | 151 kts | 334° |
| 2026-04-28 12:36 | 62.08995 | 73.74649 | 3138 ft | 152 kts | 336° |
| 2026-04-28 12:36 | 62.10049 | 73.74279 | 3085 ft | 160 kts | 351° |
| 2026-04-28 12:36 | 62.11123 | 73.75098 | 2949 ft | 170 kts | 31° |
| 2026-04-28 12:37 | 62.11673 | 73.77214 | 2809 ft | 162 kts | 79° |
| 2026-04-28 12:37 | 62.11930 | 73.79557 | 2760 ft | 157 kts | 81° |
| 2026-04-28 12:37 | 62.12096 | 73.81708 | 3003 ft | 140 kts | 89° |
| 2026-04-28 12:37 | 62.12209 | 73.83751 | 3113 ft | 138 kts | 90° |
| 2026-04-28 12:38 | 62.12319 | 73.85809 | 3172 ft | 141 kts | 90° |
| 2026-04-28 12:38 | 62.12419 | 73.87875 | 3284 ft | 139 kts | 92° |
| 2026-04-28 12:38 | 62.12484 | 73.89915 | 3377 ft | 137 kts | 94° |
| 2026-04-28 12:38 | 62.12512 | 73.91944 | 3477 ft | 136 kts | 97° |
| 2026-04-28 12:39 | 62.12501 | 73.93965 | 3573 ft | 136 kts | 99° |
| 2026-04-28 12:39 | 62.12451 | 73.95982 | 3672 ft | 136 kts | 102° |
| 2026-04-28 12:39 | 62.12364 | 73.97987 | 3762 ft | 135 kts | 104° |
| 2026-04-28 12:39 | 62.12241 | 73.99975 | 3865 ft | 135 kts | 107° |
| 2026-04-28 12:40 | 62.12081 | 74.01945 | 3942 ft | 134 kts | 109° |
| 2026-04-28 12:40 | 62.11886 | 74.03894 | 4032 ft | 134 kts | 111° |
| 2026-04-28 12:40 | 62.11655 | 74.05818 | 4130 ft | 133 kts | 114° |
| 2026-04-28 12:40 | 62.11389 | 74.07715 | 4224 ft | 133 kts | 116° |
| 2026-04-28 12:41 | 62.11087 | 74.09588 | 4302 ft | 133 kts | 118° |
| 2026-04-28 12:41 | 62.10753 | 74.11423 | 4380 ft | 133 kts | 121° |
| 2026-04-28 12:41 | 62.10387 | 74.13228 | 4454 ft | 132 kts | 123° |
| 2026-04-28 12:41 | 62.09990 | 74.14992 | 4530 ft | 132 kts | 125° |
| 2026-04-28 12:42 | 62.09562 | 74.16718 | 4609 ft | 131 kts | 128° |
| 2026-04-28 12:42 | 62.09111 | 74.18381 | 4678 ft | 131 kts | 130° |
| 2026-04-28 12:42 | 62.08626 | 74.20023 | 4747 ft | 130 kts | 132° |
| 2026-04-28 12:42 | 62.08115 | 74.21617 | 4820 ft | 131 kts | 134° |
| 2026-04-28 12:43 | 62.07714 | 74.23397 | 4409 ft | 138 kts | 110° |
| 2026-04-28 12:43 | 62.07569 | 74.25409 | 4141 ft | 137 kts | 93° |
| 2026-04-28 12:43 | 62.07520 | 74.27428 | 4035 ft | 136 kts | 93° |
| 2026-04-28 12:43 | 62.07517 | 74.29423 | 3849 ft | 133 kts | 89° |
| 2026-04-28 12:44 | 62.07575 | 74.31373 | 3583 ft | 130 kts | 87° |
| 2026-04-28 12:44 | 62.07691 | 74.33280 | 3273 ft | 129 kts | 82° |
| 2026-04-28 12:44 | 62.07863 | 74.35145 | 2970 ft | 128 kts | 76° |
| 2026-04-28 12:44 | 62.08081 | 74.36968 | 2666 ft | 123 kts | 72° |
| 2026-04-28 12:45 | 62.08310 | 74.38539 | 2618 ft | 99 kts | 71° |
| 2026-04-28 12:45 | 62.08531 | 74.39776 | 2600 ft | 81 kts | 65° |
| 2026-04-28 12:45 | 62.08744 | 74.40820 | 2553 ft | 75 kts | 67° |
| 2026-04-28 12:45 | 62.08968 | 74.41822 | 2480 ft | 74 kts | 70° |
| 2026-04-28 12:46 | 62.09199 | 74.42806 | 2404 ft | 74 kts | 71° |
| 2026-04-28 12:46 | 62.09402 | 74.43546 | 2322 ft | 33 kts | 86° |
| 2026-04-28 12:46 | 62.09495 | 74.43756 | 2126 ft | 26 kts | 111° |
| 2026-04-28 12:46 | 62.09606 | 74.43973 | 1913 ft | 24 kts | 131° |
| 2026-04-28 12:47 | 62.09756 | 74.43958 | 1891 ft | 23 kts | 147° |
| 2026-04-28 12:47 | 62.09910 | 74.43954 | 1867 ft | 23 kts | 173° |
| 2026-04-28 12:47 | 62.10034 | 74.43953 | 1869 ft | 15 kts | 197° |
| 2026-04-28 12:47 | 62.10077 | 74.43944 | 1859 ft | 16 kts | 190° |
| 2026-04-28 12:48 | 62.09956 | 74.43925 | 1849 ft | 36 kts | 195° |
| 2026-04-28 12:48 | 62.09746 | 74.43894 | 1980 ft | 21 kts | 193° |
| 2026-04-28 12:48 | 62.09656 | 74.43957 | 2001 ft | 16 kts | 130° |
| 2026-04-28 12:48 | 62.09431 | 74.44677 | 1866 ft | 87 kts | 99° |
| 2026-04-28 12:49 | 62.09437 | 74.45899 | 2111 ft | 98 kts | 76° |
| 2026-04-28 12:49 | 62.09958 | 74.47005 | 2105 ft | 116 kts | 28° |
| 2026-04-28 12:49 | 62.10665 | 74.47962 | 2061 ft | 124 kts | 33° |
| 2026-04-28 12:49 | 62.11437 | 74.48993 | 1643 ft | 139 kts | 28° |
| 2026-04-28 12:50 | 62.12289 | 74.49940 | 1414 ft | 135 kts | 24° |
| 2026-04-28 12:50 | 62.13125 | 74.50728 | 1195 ft | 130 kts | 20° |
| 2026-04-28 12:50 | 62.13970 | 74.51355 | 1003 ft | 127 kts | 11° |
| 2026-04-28 12:50 | 62.14824 | 74.51785 | 879 ft | 125 kts | 11° |
| 2026-04-28 12:51 | 62.15674 | 74.52115 | 766 ft | 123 kts | 5° |
| 2026-04-28 12:51 | 62.16518 | 74.52418 | 613 ft | 123 kts | 7° |
| 2026-04-28 12:51 | 62.17357 | 74.52748 | 415 ft | 117 kts | 7° |
| 2026-04-28 12:51 | 62.18142 | 74.53000 | 306 ft | 111 kts | 8° |
| 2026-04-28 12:52 | 62.18584 | 74.53218 | 294 ft | 11 kts | 72° |
| 2026-04-28 12:52 | 62.18654 | 74.53329 | 309 ft | 23 kts | 7° |
| 2026-04-28 12:52 | 62.18910 | 74.53315 | 294 ft | 37 kts | 16° |
| 2026-04-28 12:52 | 62.19134 | 74.53377 | 297 ft | 37 kts | 25° |
| 2026-04-28 12:53 | 62.19397 | 74.53467 | 274 ft | 28 kts | 349° |
| 2026-04-28 12:53 | 62.19476 | 74.53363 | 262 ft | 29 kts | 313° |
| 2026-04-28 12:53 | 62.19531 | 74.53075 | 297 ft | 7 kts | 287° |
| 2026-04-28 12:53 | 62.19538 | 74.53102 | 228 ft | 0 kts | 263° |
| 2026-04-28 12:54 | 62.19531 | 74.53091 | 233 ft | 3 kts | 282° |
| 2026-04-28 12:54 | 62.19537 | 74.53072 | 229 ft | 1 kts | 246° |
| 2026-04-28 12:54 | 62.19535 | 74.53070 | 227 ft | 0 kts | 283° |